createdAt,value
2023-01-23T00:02:01.815Z,5.19
2023-01-23T00:04:28.717Z,4.88
2023-01-23T00:06:55.789Z,4.99
2023-01-23T00:09:22.564Z,5.32
2023-01-23T00:11:51.787Z,5.11
2023-01-23T00:14:18.789Z,5.11
2023-01-23T00:16:45.538Z,5.43
2023-01-23T00:19:12.369Z,5.54
2023-01-23T00:21:39.948Z,5.60
2023-01-23T00:24:09.868Z,5.23
2023-01-23T00:26:36.710Z,5.17
2023-01-23T00:29:04.849Z,5.25
2023-01-23T00:31:37.843Z,5.07
2023-01-23T00:34:08.327Z,5.31
2023-01-23T00:36:38.032Z,5.13
2023-01-23T00:39:08.754Z,4.90
2023-01-23T00:41:35.754Z,5.06
2023-01-23T00:44:02.757Z,5.09
2023-01-23T00:46:29.945Z,5.05
2023-01-23T00:48:56.996Z,5.20
2023-01-23T00:51:24.194Z,5.05
2023-01-23T00:53:51.307Z,4.90
2023-01-23T00:56:18.627Z,4.73
2023-01-23T00:58:45.529Z,4.63
2023-01-23T01:01:14.159Z,4.81
2023-01-23T01:03:42.100Z,5.08
2023-01-23T01:06:10.209Z,4.73
2023-01-23T01:08:37.431Z,4.58
2023-01-23T01:11:04.685Z,4.72
2023-01-23T01:13:31.975Z,4.74
2023-01-23T01:16:02.109Z,4.66
2023-01-23T01:18:30.002Z,4.80
2023-01-23T01:20:57.803Z,4.89
2023-01-23T01:23:24.931Z,5.02
2023-01-23T01:25:51.878Z,4.82
2023-01-23T01:28:18.941Z,5.03
2023-01-23T01:30:45.850Z,5.24
2023-01-23T01:33:12.916Z,5.22
2023-01-23T01:35:42.449Z,5.32
2023-01-23T01:38:09.629Z,5.26
2023-01-23T01:40:37.852Z,5.18
2023-01-23T01:43:17.703Z,4.95
2023-01-23T01:46:09.443Z,5.26
2023-01-23T01:48:51.411Z,5.12
2023-01-23T01:52:24.189Z,5.07
2023-01-23T01:54:59.021Z,5.18
2023-01-23T01:57:29.644Z,5.32
2023-01-23T02:00:12.038Z,5.64
2023-01-23T02:02:47.554Z,5.68
2023-01-23T02:05:19.441Z,5.41
2023-01-23T02:08:05.429Z,5.52
2023-01-23T02:10:55.641Z,5.45
2023-01-23T02:13:36.174Z,5.25
2023-01-23T02:16:12.649Z,5.39
2023-01-23T02:18:44.724Z,5.45
2023-01-23T02:21:13.963Z,5.77
2023-01-23T02:23:46.834Z,5.71
2023-01-23T02:26:21.712Z,5.66
2023-01-23T02:28:56.158Z,5.25
2023-01-23T02:31:23.750Z,5.37
2023-01-23T02:33:53.469Z,5.23
2023-01-23T02:36:23.163Z,5.18
2023-01-23T02:38:55.015Z,5.19
2023-01-23T02:41:28.835Z,5.41
2023-01-23T02:43:58.653Z,5.34
2023-01-23T02:46:26.004Z,5.29
2023-01-23T02:48:52.856Z,5.37
2023-01-23T02:51:22.049Z,5.15
2023-01-23T02:53:49.321Z,5.60
2023-01-23T02:56:16.810Z,5.48
2023-01-23T02:59:02.828Z,5.74
2023-01-23T03:01:29.828Z,5.40
2023-01-23T03:03:56.637Z,5.56
2023-01-23T03:06:24.364Z,5.73
2023-01-23T03:08:51.152Z,5.70
2023-01-23T03:11:18.857Z,5.65
2023-01-23T03:13:47.268Z,5.70
2023-01-23T03:16:15.436Z,5.41
2023-01-23T03:18:53.396Z,5.40
2023-01-23T03:21:20.942Z,5.35
2023-01-23T03:23:48.455Z,5.24
2023-01-23T03:26:17.055Z,5.18
2023-01-23T03:29:02.544Z,5.44
2023-01-23T03:31:35.378Z,5.38
2023-01-23T03:34:02.681Z,5.17
2023-01-23T03:36:29.463Z,5.12
2023-01-23T03:39:14.830Z,4.91
2023-01-23T03:41:42.148Z,5.03
2023-01-23T03:44:09.456Z,4.96
2023-01-23T03:46:36.514Z,5.14
2023-01-23T03:49:03.495Z,5.04
2023-01-23T03:51:30.258Z,5.04
2023-01-23T03:53:57.099Z,4.93
2023-01-23T03:56:23.866Z,5.28
2023-01-23T03:58:50.735Z,5.02
2023-01-23T04:01:17.745Z,5.16
2023-01-23T04:03:46.664Z,5.21
2023-01-23T04:06:13.446Z,5.28
2023-01-23T04:08:42.155Z,5.34
2023-01-23T04:11:10.961Z,5.13
2023-01-23T04:13:38.683Z,5.25
2023-01-23T04:16:06.716Z,5.18
2023-01-23T04:18:33.943Z,5.11
2023-01-23T04:21:00.977Z,5.35
2023-01-23T04:23:28.740Z,5.64
2023-01-23T04:25:55.513Z,5.60
2023-01-23T04:28:22.550Z,5.51
2023-01-23T04:30:53.427Z,5.61
2023-01-23T04:33:20.527Z,5.78
2023-01-23T04:35:55.865Z,5.57
2023-01-23T04:38:24.100Z,5.23
2023-01-23T04:40:51.509Z,5.23
2023-01-23T04:43:19.381Z,5.49
2023-01-23T04:45:46.997Z,5.61
2023-01-23T04:48:14.220Z,5.49
2023-01-23T04:50:41.251Z,5.91
2023-01-23T04:53:08.430Z,5.83
2023-01-23T04:55:35.570Z,5.75
2023-01-23T04:58:03.515Z,5.77
2023-01-23T05:00:30.424Z,5.67
2023-01-23T05:02:57.833Z,5.58
2023-01-23T05:05:25.101Z,5.78
2023-01-23T05:07:52.535Z,5.58
2023-01-23T05:10:20.160Z,5.39
2023-01-23T05:12:47.685Z,5.20
2023-01-23T05:15:15.227Z,5.25
2023-01-23T05:17:41.972Z,5.50
2023-01-23T05:20:11.298Z,5.27
2023-01-23T05:22:38.721Z,5.23
2023-01-23T05:25:06.132Z,5.14
2023-01-23T05:27:33.105Z,5.26
2023-01-23T05:30:05.570Z,5.34
2023-01-23T05:32:36.137Z,5.43
2023-01-23T05:35:03.065Z,5.49
2023-01-23T05:37:52.143Z,5.49
2023-01-23T05:40:20.247Z,5.77
2023-01-23T05:42:53.537Z,5.72
2023-01-23T05:45:20.564Z,5.71
2023-01-23T05:47:48.291Z,5.42
2023-01-23T05:50:20.844Z,5.60
2023-01-23T05:52:49.589Z,5.56
2023-01-23T05:55:17.118Z,5.88
2023-01-23T05:57:49.606Z,5.80
2023-01-23T06:00:17.064Z,5.67
2023-01-23T06:02:45.182Z,5.85
2023-01-23T06:05:12.200Z,5.83
2023-01-23T06:07:39.265Z,6.02
2023-01-23T06:10:09.755Z,6.16
2023-01-23T06:12:39.087Z,6.10
2023-01-23T06:15:06.757Z,6.22
2023-01-23T06:17:33.519Z,6.33
2023-01-23T06:20:00.440Z,6.33
2023-01-23T06:22:27.220Z,6.37
2023-01-23T06:24:56.867Z,6.15
2023-01-23T06:27:23.927Z,6.35
2023-01-23T06:29:53.231Z,6.46
2023-01-23T06:32:20.141Z,6.43
2023-01-23T06:34:47.023Z,6.44
2023-01-23T06:37:13.782Z,6.34
2023-01-23T06:39:40.845Z,6.22
2023-01-23T06:42:10.442Z,6.15
2023-01-23T06:44:37.991Z,6.31
2023-01-23T06:47:05.276Z,6.47
2023-01-23T06:49:32.514Z,6.35
2023-01-23T06:51:59.268Z,6.45
2023-01-23T06:54:26.358Z,6.28
2023-01-23T06:56:53.286Z,6.10
2023-01-23T06:59:20.072Z,6.02
2023-01-23T07:01:46.935Z,6.09
2023-01-23T07:04:13.869Z,5.90
2023-01-23T07:06:40.679Z,6.15
2023-01-23T07:09:07.448Z,6.06
2023-01-23T07:11:34.334Z,5.99
2023-01-23T07:14:01.024Z,5.99
2023-01-23T07:16:28.122Z,5.90
2023-01-23T07:18:56.274Z,6.00
2023-01-23T07:21:23.254Z,5.99
2023-01-23T07:23:51.104Z,6.10
2023-01-23T07:26:17.989Z,5.83
2023-01-23T07:28:44.965Z,5.83
2023-01-23T07:31:11.888Z,5.85
2023-01-23T07:33:40.217Z,6.07
2023-01-23T07:36:07.619Z,5.93
2023-01-23T07:38:37.623Z,6.11
2023-01-23T07:41:05.101Z,6.30
2023-01-23T07:43:31.871Z,6.07
2023-01-23T07:46:01.754Z,6.39
2023-01-23T07:48:29.592Z,6.52
2023-01-23T07:50:59.156Z,6.18
2023-01-23T07:53:25.941Z,6.36
2023-01-23T07:55:52.763Z,6.43
2023-01-23T07:58:31.398Z,6.24
2023-01-23T08:00:58.770Z,6.61
2023-01-23T08:03:29.119Z,8.57
2023-01-23T08:05:56.077Z,9.50
2023-01-23T08:08:22.909Z,8.81
2023-01-23T08:10:49.628Z,7.08
2023-01-23T08:13:16.386Z,9.03
2023-01-23T08:15:43.406Z,7.57
2023-01-23T08:18:10.254Z,6.76
2023-01-23T08:20:37.407Z,6.60
2023-01-23T08:23:04.338Z,6.87
2023-01-23T08:25:31.406Z,6.61
2023-01-23T08:27:58.213Z,6.74
2023-01-23T08:30:25.253Z,6.74
2023-01-23T08:32:52.275Z,6.82
2023-01-23T08:35:19.018Z,6.84
2023-01-23T08:37:45.898Z,6.95
2023-01-23T08:40:13.128Z,6.78
2023-01-23T08:42:39.989Z,6.74
2023-01-23T08:45:08.026Z,6.86
2023-01-23T08:47:36.927Z,6.79
2023-01-23T08:50:05.938Z,7.02
2023-01-23T08:52:35.150Z,7.02
2023-01-23T08:55:02.061Z,7.45
2023-01-23T08:57:31.523Z,7.28
2023-01-23T08:59:58.547Z,7.31
2023-01-23T09:02:25.486Z,7.12
2023-01-23T09:04:52.179Z,7.52
2023-01-23T09:07:19.017Z,7.28
2023-01-23T09:09:45.750Z,7.42
2023-01-23T09:12:12.599Z,7.56
2023-01-23T09:14:39.645Z,7.17
2023-01-23T09:17:06.566Z,7.50
2023-01-23T09:19:33.884Z,7.75
2023-01-23T09:22:00.776Z,7.77
2023-01-23T09:24:27.906Z,7.57
2023-01-23T09:26:54.590Z,7.97
2023-01-23T09:29:21.631Z,8.20
2023-01-23T09:31:48.413Z,8.16
2023-01-23T09:34:17.193Z,8.13
2023-01-23T09:36:45.102Z,8.41
2023-01-23T09:39:12.489Z,8.35
2023-01-23T09:41:40.140Z,8.13
2023-01-23T09:44:20.968Z,8.30
2023-01-23T09:46:56.154Z,8.30
2023-01-23T09:49:31.117Z,8.64
2023-01-23T09:52:06.820Z,9.03
2023-01-23T09:54:59.142Z,9.01
2023-01-23T09:57:33.484Z,8.99
2023-01-23T10:00:07.017Z,8.84
2023-01-23T10:02:36.598Z,8.87
2023-01-23T10:05:04.838Z,8.81
2023-01-23T10:07:51.707Z,8.78
2023-01-23T10:10:18.418Z,8.62
2023-01-23T10:12:55.238Z,8.35
2023-01-23T10:15:37.451Z,8.27
2023-01-23T10:18:16.361Z,8.37
2023-01-23T10:21:07.592Z,8.61
2023-01-23T10:23:46.377Z,8.43
2023-01-23T10:26:24.117Z,8.30
2023-01-23T10:29:02.400Z,8.35
2023-01-23T10:31:38.631Z,8.45
2023-01-23T10:34:22.117Z,8.23
2023-01-23T10:37:23.714Z,8.28
2023-01-23T10:40:08.195Z,8.42
2023-01-23T10:42:36.906Z,8.43
2023-01-23T10:45:05.146Z,8.70
2023-01-23T10:47:49.908Z,8.86
2023-01-23T10:50:35.393Z,8.76
2023-01-23T10:53:18.967Z,8.75
2023-01-23T10:55:46.749Z,8.96
2023-01-23T10:58:49.651Z,8.85
2023-01-23T11:01:27.449Z,8.83
2023-01-23T11:03:54.431Z,8.87
2023-01-23T11:06:26.586Z,8.93
2023-01-23T11:09:05.219Z,9.02
2023-01-23T11:11:36.317Z,8.91
2023-01-23T11:17:08.345Z,9.22
2023-01-23T11:19:39.113Z,9.53
2023-01-23T11:22:32.418Z,9.32
2023-01-23T11:25:29.737Z,9.23
2023-01-23T11:28:20.748Z,9.21
2023-01-23T11:31:12.771Z,9.40
2023-01-23T11:33:58.517Z,9.14
2023-01-23T11:36:31.633Z,9.37
2023-01-23T11:39:13.477Z,9.39
2023-01-23T11:41:40.585Z,9.60
2023-01-23T11:44:18.648Z,9.34
2023-01-23T11:47:13.014Z,9.41
2023-01-23T11:50:04.532Z,9.20
2023-01-23T11:52:34.727Z,9.18
2023-01-23T11:55:38.853Z,9.67
2023-01-23T11:58:49.820Z,9.36
2023-01-23T12:02:04.712Z,9.67
2023-01-23T12:04:34.347Z,9.62
2023-01-23T12:07:17.726Z,9.67
2023-01-23T12:10:00.176Z,9.78
2023-01-23T12:12:54.416Z,9.71
2023-01-23T12:15:33.377Z,9.47
2023-01-23T12:18:40.466Z,9.82
2023-01-23T12:21:26.776Z,9.69
2023-01-23T12:24:09.162Z,9.74
2023-01-23T12:26:46.464Z,9.92
2023-01-23T12:29:28.483Z,10.05
2023-01-23T12:32:07.770Z,9.82
2023-01-23T12:34:52.803Z,9.89
2023-01-23T12:38:01.843Z,9.87
2023-01-23T12:40:37.254Z,10.32
2023-01-23T12:43:11.670Z,10.18
2023-01-23T12:45:46.804Z,9.94
2023-01-23T12:48:20.043Z,10.06
2023-01-23T12:50:51.404Z,10.32
2023-01-23T12:53:22.380Z,10.50
2023-01-23T12:56:05.074Z,10.78
2023-01-23T12:58:36.622Z,10.62
2023-01-23T13:01:40.652Z,10.59
2023-01-23T13:04:21.963Z,10.55
2023-01-23T13:07:17.260Z,10.33
2023-01-23T13:10:17.775Z,10.63
2023-01-23T13:12:44.974Z,10.59
2023-01-23T13:15:22.688Z,10.71
2023-01-23T13:17:57.660Z,10.75
2023-01-23T13:20:45.497Z,10.59
2023-01-23T13:23:35.749Z,10.77
2023-01-23T13:26:23.313Z,10.70
2023-01-23T13:28:55.829Z,10.60
2023-01-23T13:31:40.412Z,10.42
2023-01-23T13:34:35.723Z,10.21
2023-01-23T13:37:34.313Z,10.54
2023-01-23T13:40:20.038Z,10.66
2023-01-23T13:42:46.980Z,10.63
2023-01-23T13:45:16.705Z,10.70
2023-01-23T14:22:08.135Z,10.27
2023-01-23T14:24:50.157Z,10.25
2023-01-23T14:27:30.483Z,10.24
2023-01-23T14:30:02.755Z,10.91
2023-01-23T14:32:32.427Z,11.08
2023-01-23T14:34:59.885Z,11.45
2023-01-23T14:37:28.417Z,11.44
2023-01-23T14:42:45.121Z,10.16
2023-01-23T14:45:15.149Z,10.12
2023-01-23T14:47:50.843Z,9.92
2023-01-23T14:50:26.119Z,9.96
2023-01-23T14:53:01.845Z,9.93
2023-01-23T14:55:30.688Z,9.61
2023-01-23T14:58:12.640Z,9.70
2023-01-23T15:00:41.990Z,9.76
2023-01-23T15:03:13.023Z,9.46
2023-01-23T15:05:41.794Z,9.40
2023-01-23T15:08:30.905Z,9.59
2023-01-23T15:11:06.894Z,9.29
2023-01-23T15:13:51.318Z,9.33
2023-01-23T15:16:20.079Z,9.36
2023-01-23T15:19:03.904Z,9.43
2023-01-23T15:24:28.180Z,9.53
2023-01-23T15:27:32.686Z,9.71
2023-01-23T15:30:41.652Z,9.74
2023-01-23T15:33:29.036Z,9.69
2023-01-23T15:36:18.790Z,9.70
2023-01-23T15:38:49.045Z,9.63
2023-01-23T15:41:17.325Z,9.49
2023-01-23T15:43:48.112Z,9.38
2023-01-23T15:46:14.900Z,9.38
2023-01-23T15:48:41.658Z,9.29
2023-01-23T15:51:12.335Z,9.46
2023-01-23T15:53:39.225Z,9.32
2023-01-23T15:56:26.700Z,9.25
2023-01-23T15:58:53.898Z,8.98
2023-01-23T16:01:21.027Z,8.85
2023-01-23T16:03:48.060Z,8.74
2023-01-23T16:06:24.630Z,8.60
2023-01-23T16:09:00.818Z,8.77
2023-01-23T16:11:34.814Z,8.48
2023-01-23T16:14:05.128Z,8.54
2023-01-23T16:16:34.933Z,8.55
2023-01-23T16:19:01.946Z,8.65
2023-01-23T16:21:30.519Z,8.85
2023-01-23T16:23:58.018Z,9.08
2023-01-23T16:26:27.021Z,9.13
2023-01-23T16:29:01.971Z,8.99
2023-01-23T16:31:51.152Z,9.00
2023-01-23T16:34:18.154Z,8.97
2023-01-23T16:36:45.609Z,8.97
2023-01-23T16:39:24.420Z,8.76
2023-01-23T16:41:51.802Z,8.74
2023-01-23T16:44:20.362Z,8.83
2023-01-23T16:46:48.179Z,8.99
2023-01-23T16:49:15.917Z,8.90
2023-01-23T16:51:47.634Z,8.84
2023-01-23T16:54:18.937Z,8.78
2023-01-23T16:56:50.966Z,8.98
2023-01-23T16:59:23.070Z,8.93
2023-01-23T17:01:52.116Z,8.90
2023-01-23T17:04:22.102Z,8.87
2023-01-23T17:07:08.107Z,8.90
2023-01-23T17:09:35.412Z,8.83
2023-01-23T17:12:02.502Z,8.75
2023-01-23T17:14:30.992Z,8.75
2023-01-23T17:17:10.582Z,8.77
2023-01-23T17:19:41.532Z,8.73
2023-01-23T17:22:24.912Z,8.58
2023-01-23T17:24:51.905Z,8.56
2023-01-23T17:27:18.914Z,8.57
2023-01-23T17:29:45.919Z,8.48
2023-01-23T17:32:30.878Z,8.38
2023-01-23T17:35:01.750Z,8.41
2023-01-23T17:37:29.754Z,8.52
2023-01-23T17:39:59.513Z,8.45
2023-01-23T17:42:29.399Z,8.56
2023-01-23T17:44:56.413Z,8.28
2023-01-23T17:47:23.650Z,8.22
2023-01-23T17:49:54.747Z,8.26
2023-01-23T17:52:22.073Z,8.35
2023-01-23T17:54:53.083Z,8.19
2023-01-23T17:57:24.112Z,8.02
2023-01-23T17:59:55.502Z,7.99
2023-01-23T18:02:29.720Z,8.03
2023-01-23T18:04:59.840Z,7.91
2023-01-23T18:07:30.032Z,7.94
2023-01-23T18:12:59.829Z,7.81
2023-01-23T18:16:07.907Z,7.70
2023-01-23T18:18:37.581Z,7.73
2023-01-23T18:21:06.275Z,7.77
2023-01-23T18:23:37.859Z,7.75
2023-01-23T18:26:37.028Z,7.67
2023-01-23T18:29:11.192Z,7.47
2023-01-23T18:32:02.458Z,7.36
2023-01-23T18:34:56.139Z,7.29
2023-01-23T18:37:23.029Z,7.48
2023-01-23T18:40:08.564Z,7.34
2023-01-23T18:42:49.400Z,7.19
2023-01-23T18:45:23.842Z,7.31
2023-01-23T18:47:54.264Z,7.56
2023-01-23T18:50:25.907Z,7.57
2023-01-23T18:53:26.693Z,7.22
2023-01-23T18:56:22.465Z,7.14
2023-01-23T18:59:11.166Z,7.26
2023-01-23T19:01:44.377Z,7.29
2023-01-23T19:04:15.806Z,7.15
2023-01-23T19:06:44.453Z,7.05
2023-01-23T19:09:21.749Z,6.95
2023-01-23T19:12:25.023Z,6.98
2023-01-23T19:15:08.598Z,6.88
2023-01-23T19:17:43.094Z,6.77
2023-01-23T19:20:22.025Z,6.90
2023-01-23T19:23:01.748Z,6.66
2023-01-23T19:25:29.210Z,6.63
2023-01-23T19:27:58.335Z,6.84
2023-01-23T19:30:26.632Z,6.70
2023-01-23T19:32:54.496Z,6.68
2023-01-23T19:35:22.444Z,6.74
2023-01-23T19:37:49.571Z,6.88
2023-01-23T19:40:17.177Z,7.27
2023-01-23T19:42:54.374Z,6.93
2023-01-23T19:45:26.162Z,7.22
2023-01-23T19:47:53.762Z,7.14
2023-01-23T19:50:22.319Z,7.18
2023-01-23T19:52:50.116Z,6.76
2023-01-23T19:55:31.539Z,6.92
2023-01-23T19:57:58.596Z,6.94
2023-01-23T20:00:29.362Z,6.72
2023-01-23T20:02:56.746Z,6.68
2023-01-23T20:05:23.997Z,6.77
2023-01-23T20:07:56.725Z,6.76
2023-01-23T20:10:23.681Z,6.96
2023-01-23T20:12:56.898Z,6.86
2023-01-23T20:15:25.845Z,6.74
2023-01-23T20:17:54.383Z,6.49
2023-01-23T20:20:22.907Z,6.89
2023-01-23T20:22:50.727Z,6.84
2023-01-23T20:25:18.180Z,6.80
2023-01-23T20:27:45.248Z,6.76
2023-01-23T20:30:15.950Z,6.66
2023-01-23T20:32:42.986Z,6.90
2023-01-23T20:35:10.877Z,6.89
2023-01-23T20:37:37.771Z,6.81
2023-01-23T20:40:05.087Z,6.84
2023-01-23T20:42:33.417Z,6.97
2023-01-23T20:45:00.542Z,7.00
2023-01-23T20:47:33.593Z,6.73
2023-01-23T20:53:05.230Z,6.52
2023-01-23T20:55:33.548Z,6.70
2023-01-23T20:58:19.323Z,6.63
2023-01-23T21:00:46.749Z,6.68
2023-01-23T21:03:13.598Z,6.77
2023-01-23T21:05:42.267Z,6.47
2023-01-23T21:08:09.102Z,6.75
2023-01-23T21:10:43.072Z,6.84
2023-01-23T21:13:23.397Z,6.88
2023-01-23T21:16:00.250Z,6.78
2023-01-23T21:18:27.566Z,6.49
2023-01-23T21:20:54.563Z,6.52
2023-01-23T21:23:21.773Z,6.30
2023-01-23T21:25:48.635Z,6.60
2023-01-23T21:28:16.334Z,6.39
2023-01-23T21:30:50.735Z,6.24
2023-01-23T21:33:18.284Z,6.59
2023-01-23T21:35:52.219Z,6.75
2023-01-23T21:38:26.631Z,6.77
2023-01-23T21:40:57.951Z,6.44
2023-01-23T21:43:26.732Z,6.22
2023-01-23T21:45:53.686Z,6.69
2023-01-23T21:48:24.288Z,6.48
2023-01-23T21:51:00.727Z,6.71
2023-01-23T21:53:30.863Z,6.39
2023-01-23T21:55:58.853Z,6.43
2023-01-23T21:58:29.730Z,6.72
2023-01-23T22:01:21.024Z,6.77
2023-01-23T22:03:52.115Z,6.32
2023-01-23T22:06:24.518Z,6.27
2023-01-23T22:08:56.876Z,6.47
2023-01-23T22:11:24.681Z,6.55
2023-01-23T22:14:07.752Z,6.72
2023-01-23T22:16:48.892Z,6.69
2023-01-23T22:19:24.870Z,6.61
2023-01-23T22:21:58.996Z,6.42
2023-01-23T22:24:30.089Z,6.35
2023-01-23T22:29:45.207Z,6.32
2023-01-23T22:32:12.327Z,6.29
2023-01-23T22:34:39.463Z,6.32
2023-01-23T22:37:06.526Z,6.93
2023-01-23T22:39:33.356Z,6.60
2023-01-23T22:42:00.108Z,6.45
2023-01-23T22:44:26.930Z,6.32
2023-01-23T22:46:53.787Z,6.57
2023-01-23T22:49:20.942Z,6.32
2023-01-23T22:51:50.698Z,6.62
2023-01-23T22:54:22.337Z,6.60
2023-01-23T22:56:49.358Z,6.48
2023-01-23T22:59:20.086Z,6.76
2023-01-23T23:01:53.686Z,6.74
2023-01-23T23:04:20.740Z,6.63
2023-01-23T23:06:47.518Z,6.20
2023-01-23T23:09:19.967Z,6.22
2023-01-23T23:11:51.496Z,6.38
2023-01-23T23:14:18.519Z,6.41
2023-01-23T23:16:45.303Z,6.48
2023-01-23T23:19:12.208Z,6.45
2023-01-23T23:21:39.807Z,6.46
2023-01-23T23:24:08.713Z,6.60
2023-01-23T23:26:35.956Z,6.30
2023-01-23T23:29:05.922Z,6.40
2023-01-23T23:31:32.989Z,6.39
2023-01-23T23:33:59.848Z,6.44
2023-01-23T23:36:27.019Z,6.44
2023-01-23T23:38:54.267Z,6.05
2023-01-23T23:41:21.135Z,6.46
2023-01-23T23:43:51.150Z,6.55
2023-01-23T23:46:18.818Z,6.24
2023-01-23T23:48:48.030Z,6.05
2023-01-23T23:51:17.699Z,5.78
2023-01-23T23:53:45.575Z,5.81
2023-01-23T23:56:32.437Z,6.13
2023-01-23T23:59:03.739Z,6.04
